Aérodrome :
LOGIN :

S'inscrire | Disclaimer

   EN    FR    IT 

 










Légende :    VFR   VFR Marginal   IFR   IFR Intensif   IFR Très Intensif
Visi : 
Plafond : 
>= 8 km
>= 3000ft
5 à 8 km
1000 à 3000 ft
1500m à 5 km
500 à 1000 ft
800 à 1500m
200 à 500 ft
< 800m
< 200 ft
Symboles :   Orages  Brouillard  Fortes neiges  Fortes précipitations  Vent > 20 kt
SIGMETs :   Divers  Orages  Givrage  Turbulence  Onde Orograph.  Cendres Volcan.






- Altitude de l'aérodrome : 25 ft
- Code IATA : QCY


EGXC - RAF Coningsby

DERNIER METAR :
  • 282050Z 29005KT 3000 BR OVC003 06/06 Q1013 RMK YLO2

METARs EXPIRÉS :
  • 281950Z AUTO 06001KT 9000 BR OVC002/// 07/06 Q1013
  • 281850Z 06003KT 5000 BR BKN003 BKN006 07/07 Q1012 RMK YLO2

TAF TAF EGXC
Valide du 28 à 21h jusqu'au 29 à 15h UTC


281940Z 2821/2915 VRB03KT 6000 BR BKN005
TEMPO 2821/2915 2000 BR BKN003
PROB40
TEMPO 2821/2912 0300 FG BKN000



MET'MAP, la Météo Aéronautique d'un coup d'oeil ! - Copyright ORBIFLY Décembre 2007 - Disclaimer

ORBIFLY MET'MAP TEAM :

Programmation & Développement : Alexandra Zaïnal
Sur une idée originale de : Baudouin d'Aumeries
Soutien technique & logistique : Manuel Goepfert
Assistance : Marc-Olivier Méhu




SOURCES & CREDITS :

   NOAA